sensor_id;sensor_type;location;lat;lon;timestamp;P1;durP1;ratioP1;P2;durP2;ratioP2
17727;SDS011;8984;49.268;12.302;2024-03-07T00:00:10;45.47;;;29.27;;
17727;SDS011;8984;49.268;12.302;2024-03-07T00:02:43;42.03;;;27.93;;
17727;SDS011;8984;49.268;12.302;2024-03-07T00:05:13;41.73;;;28.20;;
17727;SDS011;8984;49.268;12.302;2024-03-07T00:07:49;42.30;;;27.87;;
17727;SDS011;8984;49.268;12.302;2024-03-07T00:10:30;43.57;;;28.20;;
17727;SDS011;8984;49.268;12.302;2024-03-07T00:12:58;38.80;;;25.37;;
17727;SDS011;8984;49.268;12.302;2024-03-07T00:15:29;39.73;;;25.93;;
17727;SDS011;8984;49.268;12.302;2024-03-07T00:17:58;42.30;;;26.53;;
17727;SDS011;8984;49.268;12.302;2024-03-07T00:20:31;39.63;;;26.07;;
17727;SDS011;8984;49.268;12.302;2024-03-07T00:23:00;43.40;;;28.80;;
17727;SDS011;8984;49.268;12.302;2024-03-07T00:25:42;43.23;;;28.93;;
17727;SDS011;8984;49.268;12.302;2024-03-07T00:28:12;45.60;;;29.67;;
17727;SDS011;8984;49.268;12.302;2024-03-07T00:30:42;41.93;;;28.20;;
17727;SDS011;8984;49.268;12.302;2024-03-07T00:33:11;41.17;;;27.53;;
17727;SDS011;8984;49.268;12.302;2024-03-07T00:35:54;36.63;;;26.17;;
17727;SDS011;8984;49.268;12.302;2024-03-07T00:38:25;42.77;;;26.70;;
17727;SDS011;8984;49.268;12.302;2024-03-07T00:43:53;43.27;;;28.07;;
17727;SDS011;8984;49.268;12.302;2024-03-07T00:46:20;44.20;;;28.97;;
17727;SDS011;8984;49.268;12.302;2024-03-07T00:49:01;41.40;;;28.30;;
17727;SDS011;8984;49.268;12.302;2024-03-07T00:51:29;43.67;;;28.73;;
17727;SDS011;8984;49.268;12.302;2024-03-07T00:54:03;41.50;;;28.43;;
17727;SDS011;8984;49.268;12.302;2024-03-07T00:59:36;40.70;;;26.23;;
17727;SDS011;8984;49.268;12.302;2024-03-07T01:02:14;41.57;;;25.53;;
17727;SDS011;8984;49.268;12.302;2024-03-07T01:04:43;39.77;;;26.47;;
17727;SDS011;8984;49.268;12.302;2024-03-07T01:07:11;45.37;;;27.53;;
17727;SDS011;8984;49.268;12.302;2024-03-07T01:09:42;43.20;;;27.63;;
17727;SDS011;8984;49.268;12.302;2024-03-07T01:12:18;45.17;;;29.13;;
17727;SDS011;8984;49.268;12.302;2024-03-07T01:14:53;40.33;;;27.30;;
17727;SDS011;8984;49.268;12.302;2024-03-07T01:17:31;40.13;;;25.83;;
17727;SDS011;8984;49.268;12.302;2024-03-07T01:20:00;39.30;;;26.30;;
17727;SDS011;8984;49.268;12.302;2024-03-07T01:22:28;41.70;;;26.93;;
17727;SDS011;8984;49.268;12.302;2024-03-07T01:25:04;38.57;;;26.53;;
17727;SDS011;8984;49.268;12.302;2024-03-07T01:27:38;43.30;;;27.90;;
17727;SDS011;8984;49.268;12.302;2024-03-07T01:30:11;41.47;;;26.13;;
17727;SDS011;8984;49.268;12.302;2024-03-07T01:32:44;38.60;;;25.93;;
17727;SDS011;8984;49.268;12.302;2024-03-07T01:35:13;38.67;;;26.30;;
17727;SDS011;8984;49.268;12.302;2024-03-07T01:37:43;42.27;;;27.50;;
17727;SDS011;8984;49.268;12.302;2024-03-07T01:40:17;39.33;;;26.10;;
17727;SDS011;8984;49.268;12.302;2024-03-07T01:43:00;40.93;;;26.30;;
17727;SDS011;8984;49.268;12.302;2024-03-07T01:45:31;39.87;;;25.97;;
17727;SDS011;8984;49.268;12.302;2024-03-07T01:48:02;38.87;;;26.00;;
17727;SDS011;8984;49.268;12.302;2024-03-07T01:50:36;39.70;;;27.03;;
17727;SDS011;8984;49.268;12.302;2024-03-07T01:53:10;39.23;;;26.30;;
17727;SDS011;8984;49.268;12.302;2024-03-07T01:55:42;40.03;;;26.87;;
17727;SDS011;8984;49.268;12.302;2024-03-07T02:00:55;43.23;;;27.83;;
17727;SDS011;8984;49.268;12.302;2024-03-07T02:03:30;41.43;;;27.23;;
17727;SDS011;8984;49.268;12.302;2024-03-07T02:06:15;46.90;;;30.20;;
17727;SDS011;8984;49.268;12.302;2024-03-07T02:08:45;43.63;;;28.30;;
17727;SDS011;8984;49.268;12.302;2024-03-07T02:11:12;44.87;;;25.70;;
17727;SDS011;8984;49.268;12.302;2024-03-07T02:13:52;39.97;;;27.10;;
17727;SDS011;8984;49.268;12.302;2024-03-07T02:16:24;44.23;;;26.60;;
17727;SDS011;8984;49.268;12.302;2024-03-07T02:18:52;39.07;;;26.40;;
17727;SDS011;8984;49.268;12.302;2024-03-07T02:21:23;41.00;;;25.77;;
17727;SDS011;8984;49.268;12.302;2024-03-07T02:23:52;38.70;;;25.70;;
17727;SDS011;8984;49.268;12.302;2024-03-07T02:26:21;40.20;;;25.97;;
17727;SDS011;8984;49.268;12.302;2024-03-07T02:29:00;35.90;;;24.60;;
17727;SDS011;8984;49.268;12.302;2024-03-07T02:31:40;37.77;;;25.00;;
17727;SDS011;8984;49.268;12.302;2024-03-07T02:34:10;36.40;;;24.63;;
17727;SDS011;8984;49.268;12.302;2024-03-07T02:36:43;43.40;;;27.63;;
17727;SDS011;8984;49.268;12.302;2024-03-07T02:39:22;41.30;;;26.47;;
17727;SDS011;8984;49.268;12.302;2024-03-07T02:42:10;38.40;;;26.07;;
17727;SDS011;8984;49.268;12.302;2024-03-07T02:44:38;41.17;;;25.63;;
17727;SDS011;8984;49.268;12.302;2024-03-07T02:47:09;37.27;;;24.40;;
17727;SDS011;8984;49.268;12.302;2024-03-07T02:49:39;39.90;;;26.37;;
17727;SDS011;8984;49.268;12.302;2024-03-07T02:52:15;42.27;;;25.77;;
17727;SDS011;8984;49.268;12.302;2024-03-07T02:54:47;41.00;;;25.77;;
17727;SDS011;8984;49.268;12.302;2024-03-07T02:57:16;37.23;;;25.20;;
17727;SDS011;8984;49.268;12.302;2024-03-07T02:59:47;40.23;;;25.00;;
17727;SDS011;8984;49.268;12.302;2024-03-07T03:02:26;37.43;;;26.13;;
17727;SDS011;8984;49.268;12.302;2024-03-07T03:04:55;37.67;;;25.60;;
17727;SDS011;8984;49.268;12.302;2024-03-07T03:07:38;39.77;;;25.87;;
17727;SDS011;8984;49.268;12.302;2024-03-07T03:10:07;42.30;;;26.30;;
17727;SDS011;8984;49.268;12.302;2024-03-07T03:12:37;40.07;;;26.57;;
17727;SDS011;8984;49.268;12.302;2024-03-07T03:15:04;40.07;;;25.80;;
17727;SDS011;8984;49.268;12.302;2024-03-07T03:17:35;37.10;;;25.07;;
17727;SDS011;8984;49.268;12.302;2024-03-07T03:20:03;40.10;;;26.90;;
17727;SDS011;8984;49.268;12.302;2024-03-07T03:22:51;40.90;;;26.07;;
17727;SDS011;8984;49.268;12.302;2024-03-07T03:25:22;36.13;;;24.37;;
17727;SDS011;8984;49.268;12.302;2024-03-07T03:27:52;42.30;;;25.93;;
17727;SDS011;8984;49.268;12.302;2024-03-07T03:30:33;38.97;;;25.63;;
17727;SDS011;8984;49.268;12.302;2024-03-07T03:33:10;40.73;;;24.57;;
17727;SDS011;8984;49.268;12.302;2024-03-07T03:36:15;41.77;;;26.60;;
17727;SDS011;8984;49.268;12.302;2024-03-07T03:41:41;36.97;;;25.33;;
17727;SDS011;8984;49.268;12.302;2024-03-07T03:44:10;44.57;;;29.13;;
17727;SDS011;8984;49.268;12.302;2024-03-07T03:46:45;44.70;;;28.67;;
17727;SDS011;8984;49.268;12.302;2024-03-07T03:49:30;43.10;;;27.50;;
17727;SDS011;8984;49.268;12.302;2024-03-07T03:51:59;44.03;;;28.63;;
17727;SDS011;8984;49.268;12.302;2024-03-07T03:54:35;42.03;;;26.60;;
17727;SDS011;8984;49.268;12.302;2024-03-07T03:57:02;43.93;;;26.67;;
17727;SDS011;8984;49.268;12.302;2024-03-07T03:59:36;48.37;;;29.20;;
17727;SDS011;8984;49.268;12.302;2024-03-07T04:02:08;50.97;;;31.23;;
17727;SDS011;8984;49.268;12.302;2024-03-07T04:04:51;44.37;;;28.17;;
17727;SDS011;8984;49.268;12.302;2024-03-07T04:07:23;44.20;;;27.30;;
17727;SDS011;8984;49.268;12.302;2024-03-07T04:09:58;42.53;;;27.83;;
17727;SDS011;8984;49.268;12.302;2024-03-07T04:12:31;41.27;;;27.37;;
17727;SDS011;8984;49.268;12.302;2024-03-07T04:15:00;39.93;;;25.83;;
17727;SDS011;8984;49.268;12.302;2024-03-07T04:17:32;38.10;;;26.40;;
17727;SDS011;8984;49.268;12.302;2024-03-07T04:20:00;43.53;;;28.03;;
17727;SDS011;8984;49.268;12.302;2024-03-07T04:22:30;44.83;;;28.47;;
17727;SDS011;8984;49.268;12.302;2024-03-07T04:25:03;39.93;;;27.00;;
17727;SDS011;8984;49.268;12.302;2024-03-07T04:27:31;39.57;;;26.17;;
17727;SDS011;8984;49.268;12.302;2024-03-07T04:30:03;39.07;;;26.27;;
17727;SDS011;8984;49.268;12.302;2024-03-07T04:32:36;44.17;;;28.47;;
17727;SDS011;8984;49.268;12.302;2024-03-07T04:35:05;40.03;;;27.73;;
17727;SDS011;8984;49.268;12.302;2024-03-07T04:37:36;43.03;;;27.07;;
17727;SDS011;8984;49.268;12.302;2024-03-07T04:40:09;37.43;;;25.63;;
17727;SDS011;8984;49.268;12.302;2024-03-07T04:42:45;39.70;;;27.23;;
17727;SDS011;8984;49.268;12.302;2024-03-07T04:45:14;42.17;;;27.93;;
17727;SDS011;8984;49.268;12.302;2024-03-07T04:48:04;46.93;;;29.87;;
17727;SDS011;8984;49.268;12.302;2024-03-07T04:50:51;43.33;;;28.27;;
17727;SDS011;8984;49.268;12.302;2024-03-07T04:56:15;40.43;;;26.03;;
17727;SDS011;8984;49.268;12.302;2024-03-07T04:58:47;42.87;;;27.33;;
17727;SDS011;8984;49.268;12.302;2024-03-07T05:01:28;44.07;;;27.67;;
17727;SDS011;8984;49.268;12.302;2024-03-07T05:04:09;42.17;;;26.90;;
17727;SDS011;8984;49.268;12.302;2024-03-07T05:06:40;40.70;;;26.30;;
17727;SDS011;8984;49.268;12.302;2024-03-07T05:09:13;38.70;;;25.97;;
17727;SDS011;8984;49.268;12.302;2024-03-07T05:11:50;40.00;;;26.20;;
17727;SDS011;8984;49.268;12.302;2024-03-07T05:14:18;38.83;;;25.87;;
17727;SDS011;8984;49.268;12.302;2024-03-07T05:16:47;38.37;;;26.27;;
17727;SDS011;8984;49.268;12.302;2024-03-07T05:22:21;41.70;;;25.23;;
17727;SDS011;8984;49.268;12.302;2024-03-07T05:24:53;36.00;;;24.67;;
17727;SDS011;8984;49.268;12.302;2024-03-07T05:27:34;38.23;;;24.87;;
17727;SDS011;8984;49.268;12.302;2024-03-07T05:30:02;41.77;;;26.60;;
17727;SDS011;8984;49.268;12.302;2024-03-07T05:32:44;33.83;;;24.33;;
17727;SDS011;8984;49.268;12.302;2024-03-07T05:35:18;34.47;;;23.80;;
17727;SDS011;8984;49.268;12.302;2024-03-07T05:37:47;42.13;;;25.70;;
17727;SDS011;8984;49.268;12.302;2024-03-07T05:40:16;40.37;;;27.27;;
17727;SDS011;8984;49.268;12.302;2024-03-07T05:42:46;40.93;;;25.67;;
17727;SDS011;8984;49.268;12.302;2024-03-07T05:45:14;44.43;;;26.60;;
17727;SDS011;8984;49.268;12.302;2024-03-07T05:47:45;41.03;;;25.30;;
17727;SDS011;8984;49.268;12.302;2024-03-07T05:50:20;36.73;;;24.13;;
17727;SDS011;8984;49.268;12.302;2024-03-07T05:52:48;39.93;;;23.87;;
17727;SDS011;8984;49.268;12.302;2024-03-07T05:55:20;34.73;;;22.70;;
17727;SDS011;8984;49.268;12.302;2024-03-07T05:58:01;41.97;;;24.57;;
17727;SDS011;8984;49.268;12.302;2024-03-07T06:00:31;39.53;;;24.50;;
17727;SDS011;8984;49.268;12.302;2024-03-07T06:03:00;32.83;;;21.87;;
17727;SDS011;8984;49.268;12.302;2024-03-07T06:05:35;34.20;;;21.77;;
17727;SDS011;8984;49.268;12.302;2024-03-07T06:08:08;33.03;;;22.23;;
17727;SDS011;8984;49.268;12.302;2024-03-07T06:10:41;33.63;;;20.27;;
17727;SDS011;8984;49.268;12.302;2024-03-07T06:13:21;29.63;;;18.43;;
17727;SDS011;8984;49.268;12.302;2024-03-07T06:15:51;29.10;;;18.90;;
17727;SDS011;8984;49.268;12.302;2024-03-07T06:18:19;33.97;;;21.30;;
17727;SDS011;8984;49.268;12.302;2024-03-07T06:20:47;31.93;;;19.20;;
17727;SDS011;8984;49.268;12.302;2024-03-07T06:23:17;31.60;;;19.67;;
17727;SDS011;8984;49.268;12.302;2024-03-07T06:25:46;31.90;;;19.53;;
17727;SDS011;8984;49.268;12.302;2024-03-07T06:28:25;27.97;;;18.43;;
17727;SDS011;8984;49.268;12.302;2024-03-07T06:30:57;33.97;;;18.60;;
17727;SDS011;8984;49.268;12.302;2024-03-07T06:33:37;31.37;;;19.50;;
17727;SDS011;8984;49.268;12.302;2024-03-07T06:36:05;32.83;;;20.47;;
17727;SDS011;8984;49.268;12.302;2024-03-07T06:38:34;40.57;;;22.63;;
17727;SDS011;8984;49.268;12.302;2024-03-07T06:41:06;35.70;;;20.83;;
17727;SDS011;8984;49.268;12.302;2024-03-07T06:43:52;37.77;;;21.20;;
17727;SDS011;8984;49.268;12.302;2024-03-07T06:46:28;34.97;;;20.90;;
17727;SDS011;8984;49.268;12.302;2024-03-07T06:49:03;39.87;;;21.73;;
17727;SDS011;8984;49.268;12.302;2024-03-07T06:51:35;44.23;;;24.73;;
17727;SDS011;8984;49.268;12.302;2024-03-07T06:54:04;40.83;;;23.90;;
17727;SDS011;8984;49.268;12.302;2024-03-07T06:56:37;36.20;;;22.57;;
17727;SDS011;8984;49.268;12.302;2024-03-07T06:59:12;37.73;;;22.17;;
17727;SDS011;8984;49.268;12.302;2024-03-07T07:01:41;41.30;;;23.60;;
17727;SDS011;8984;49.268;12.302;2024-03-07T07:04:27;36.90;;;22.60;;
17727;SDS011;8984;49.268;12.302;2024-03-07T07:07:07;34.77;;;20.97;;
17727;SDS011;8984;49.268;12.302;2024-03-07T07:09:46;35.53;;;22.40;;
17727;SDS011;8984;49.268;12.302;2024-03-07T07:12:17;35.07;;;20.77;;
17727;SDS011;8984;49.268;12.302;2024-03-07T07:15:19;38.23;;;23.40;;
17727;SDS011;8984;49.268;12.302;2024-03-07T07:17:46;35.60;;;21.83;;
17727;SDS011;8984;49.268;12.302;2024-03-07T07:20:14;35.88;;;23.42;;
17727;SDS011;8984;49.268;12.302;2024-03-07T07:22:41;34.80;;;22.20;;
17727;SDS011;8984;49.268;12.302;2024-03-07T07:25:10;33.03;;;20.87;;
17727;SDS011;8984;49.268;12.302;2024-03-07T07:27:40;35.23;;;21.23;;
17727;SDS011;8984;49.268;12.302;2024-03-07T07:30:08;33.30;;;20.70;;
17727;SDS011;8984;49.268;12.302;2024-03-07T07:32:37;46.73;;;21.37;;
17727;SDS011;8984;49.268;12.302;2024-03-07T07:35:04;35.17;;;20.77;;
17727;SDS011;8984;49.268;12.302;2024-03-07T07:37:34;33.90;;;21.23;;
17727;SDS011;8984;49.268;12.302;2024-03-07T07:40:01;34.97;;;22.20;;
17727;SDS011;8984;49.268;12.302;2024-03-07T07:42:33;35.60;;;22.98;;
17727;SDS011;8984;49.268;12.302;2024-03-07T07:45:04;37.43;;;23.00;;
17727;SDS011;8984;49.268;12.302;2024-03-07T07:47:37;36.83;;;22.57;;
17727;SDS011;8984;49.268;12.302;2024-03-07T07:50:06;37.53;;;22.53;;
17727;SDS011;8984;49.268;12.302;2024-03-07T07:52:39;36.67;;;22.67;;
17727;SDS011;8984;49.268;12.302;2024-03-07T07:55:06;38.27;;;23.10;;
17727;SDS011;8984;49.268;12.302;2024-03-07T07:57:39;34.67;;;23.00;;
17727;SDS011;8984;49.268;12.302;2024-03-07T08:00:08;33.30;;;22.17;;
17727;SDS011;8984;49.268;12.302;2024-03-07T08:02:37;38.97;;;23.83;;
17727;SDS011;8984;49.268;12.302;2024-03-07T08:05:04;39.10;;;23.23;;
17727;SDS011;8984;49.268;12.302;2024-03-07T08:07:31;36.63;;;22.33;;
17727;SDS011;8984;49.268;12.302;2024-03-07T08:09:58;37.97;;;23.50;;
17727;SDS011;8984;49.268;12.302;2024-03-07T08:12:25;39.07;;;22.23;;
17727;SDS011;8984;49.268;12.302;2024-03-07T08:14:51;33.97;;;21.80;;
17727;SDS011;8984;49.268;12.302;2024-03-07T08:17:18;36.50;;;22.43;;
17727;SDS011;8984;49.268;12.302;2024-03-07T08:19:47;35.40;;;22.33;;
17727;SDS011;8984;49.268;12.302;2024-03-07T08:22:16;32.43;;;20.00;;
17727;SDS011;8984;49.268;12.302;2024-03-07T08:24:44;33.23;;;20.20;;
17727;SDS011;8984;49.268;12.302;2024-03-07T08:27:11;28.43;;;19.53;;
17727;SDS011;8984;49.268;12.302;2024-03-07T08:29:38;32.33;;;21.13;;
17727;SDS011;8984;49.268;12.302;2024-03-07T08:32:06;32.40;;;20.60;;
17727;SDS011;8984;49.268;12.302;2024-03-07T08:34:33;30.20;;;19.87;;
17727;SDS011;8984;49.268;12.302;2024-03-07T08:37:01;29.97;;;19.57;;
17727;SDS011;8984;49.268;12.302;2024-03-07T08:39:29;27.47;;;18.00;;
17727;SDS011;8984;49.268;12.302;2024-03-07T08:41:57;29.00;;;18.13;;
17727;SDS011;8984;49.268;12.302;2024-03-07T08:44:24;28.87;;;17.13;;
17727;SDS011;8984;49.268;12.302;2024-03-07T08:46:51;23.73;;;16.97;;
17727;SDS011;8984;49.268;12.302;2024-03-07T08:49:19;25.70;;;16.83;;
17727;SDS011;8984;49.268;12.302;2024-03-07T08:51:46;27.33;;;16.97;;
17727;SDS011;8984;49.268;12.302;2024-03-07T08:54:14;24.30;;;16.60;;
17727;SDS011;8984;49.268;12.302;2024-03-07T08:56:41;24.20;;;15.20;;
17727;SDS011;8984;49.268;12.302;2024-03-07T08:59:08;24.20;;;17.03;;
17727;SDS011;8984;49.268;12.302;2024-03-07T09:01:40;23.40;;;15.90;;
17727;SDS011;8984;49.268;12.302;2024-03-07T09:04:08;22.73;;;15.27;;
17727;SDS011;8984;49.268;12.302;2024-03-07T09:06:36;23.90;;;16.40;;
17727;SDS011;8984;49.268;12.302;2024-03-07T09:09:03;21.10;;;14.60;;
17727;SDS011;8984;49.268;12.302;2024-03-07T09:11:35;22.27;;;15.63;;
17727;SDS011;8984;49.268;12.302;2024-03-07T09:14:02;20.97;;;14.00;;
17727;SDS011;8984;49.268;12.302;2024-03-07T09:16:34;20.40;;;14.67;;
17727;SDS011;8984;49.268;12.302;2024-03-07T09:19:01;21.07;;;13.63;;
17727;SDS011;8984;49.268;12.302;2024-03-07T09:21:28;19.73;;;13.50;;
17727;SDS011;8984;49.268;12.302;2024-03-07T09:23:54;18.07;;;12.70;;
17727;SDS011;8984;49.268;12.302;2024-03-07T09:26:21;17.57;;;13.23;;
17727;SDS011;8984;49.268;12.302;2024-03-07T09:28:50;20.00;;;13.13;;
17727;SDS011;8984;49.268;12.302;2024-03-07T09:31:17;20.13;;;13.23;;
17727;SDS011;8984;49.268;12.302;2024-03-07T09:33:44;18.63;;;13.67;;
17727;SDS011;8984;49.268;12.302;2024-03-07T09:36:10;18.63;;;13.47;;
17727;SDS011;8984;49.268;12.302;2024-03-07T09:38:37;18.80;;;13.47;;
17727;SDS011;8984;49.268;12.302;2024-03-07T09:41:05;18.47;;;13.07;;
17727;SDS011;8984;49.268;12.302;2024-03-07T09:43:32;18.27;;;12.63;;
17727;SDS011;8984;49.268;12.302;2024-03-07T09:46:01;16.53;;;12.70;;
17727;SDS011;8984;49.268;12.302;2024-03-07T09:48:29;19.93;;;14.07;;
17727;SDS011;8984;49.268;12.302;2024-03-07T09:50:56;20.13;;;14.27;;
17727;SDS011;8984;49.268;12.302;2024-03-07T09:53:26;18.07;;;13.40;;
17727;SDS011;8984;49.268;12.302;2024-03-07T09:55:54;24.50;;;14.07;;
17727;SDS011;8984;49.268;12.302;2024-03-07T09:58:20;20.83;;;13.50;;
17727;SDS011;8984;49.268;12.302;2024-03-07T10:00:48;20.37;;;13.33;;
17727;SDS011;8984;49.268;12.302;2024-03-07T10:03:18;19.80;;;14.17;;
17727;SDS011;8984;49.268;12.302;2024-03-07T10:05:48;18.17;;;13.60;;
17727;SDS011;8984;49.268;12.302;2024-03-07T10:08:17;20.07;;;14.17;;
17727;SDS011;8984;49.268;12.302;2024-03-07T10:10:44;20.40;;;14.50;;
17727;SDS011;8984;49.268;12.302;2024-03-07T10:13:12;18.90;;;14.57;;
17727;SDS011;8984;49.268;12.302;2024-03-07T10:15:39;19.63;;;15.03;;
17727;SDS011;8984;49.268;12.302;2024-03-07T10:18:08;19.73;;;14.50;;
17727;SDS011;8984;49.268;12.302;2024-03-07T10:20:37;23.27;;;15.90;;
17727;SDS011;8984;49.268;12.302;2024-03-07T10:23:07;20.53;;;15.03;;
17727;SDS011;8984;49.268;12.302;2024-03-07T10:25:35;18.97;;;14.53;;
17727;SDS011;8984;49.268;12.302;2024-03-07T10:28:16;21.47;;;16.10;;
17727;SDS011;8984;49.268;12.302;2024-03-07T10:30:47;21.83;;;15.63;;
17727;SDS011;8984;49.268;12.302;2024-03-07T10:33:25;25.60;;;16.93;;
17727;SDS011;8984;49.268;12.302;2024-03-07T10:35:59;22.77;;;16.37;;
17727;SDS011;8984;49.268;12.302;2024-03-07T10:38:27;22.43;;;16.13;;
17727;SDS011;8984;49.268;12.302;2024-03-07T10:40:56;23.73;;;16.43;;
17727;SDS011;8984;49.268;12.302;2024-03-07T10:43:26;20.33;;;15.87;;
17727;SDS011;8984;49.268;12.302;2024-03-07T10:45:58;25.20;;;16.17;;
17727;SDS011;8984;49.268;12.302;2024-03-07T10:48:38;24.63;;;18.07;;
17727;SDS011;8984;49.268;12.302;2024-03-07T10:51:13;25.40;;;17.47;;
17727;SDS011;8984;49.268;12.302;2024-03-07T10:53:52;22.83;;;16.50;;
17727;SDS011;8984;49.268;12.302;2024-03-07T10:56:41;25.03;;;17.20;;
17727;SDS011;8984;49.268;12.302;2024-03-07T10:59:22;23.43;;;16.67;;
17727;SDS011;8984;49.268;12.302;2024-03-07T11:02:04;22.10;;;16.83;;
17727;SDS011;8984;49.268;12.302;2024-03-07T11:04:46;21.90;;;16.47;;
17727;SDS011;8984;49.268;12.302;2024-03-07T11:07:19;22.77;;;16.23;;
17727;SDS011;8984;49.268;12.302;2024-03-07T11:09:49;28.80;;;18.10;;
17727;SDS011;8984;49.268;12.302;2024-03-07T11:12:22;21.67;;;16.23;;
17727;SDS011;8984;49.268;12.302;2024-03-07T11:14:53;24.03;;;16.17;;
17727;SDS011;8984;49.268;12.302;2024-03-07T11:17:29;26.80;;;19.00;;
17727;SDS011;8984;49.268;12.302;2024-03-07T11:22:51;21.10;;;15.63;;
17727;SDS011;8984;49.268;12.302;2024-03-07T11:25:26;22.60;;;16.00;;
17727;SDS011;8984;49.268;12.302;2024-03-07T11:28:03;20.97;;;15.07;;
17727;SDS011;8984;49.268;12.302;2024-03-07T11:30:32;22.40;;;16.47;;
17727;SDS011;8984;49.268;12.302;2024-03-07T11:33:01;20.50;;;15.90;;
17727;SDS011;8984;49.268;12.302;2024-03-07T11:35:36;22.23;;;15.97;;
17727;SDS011;8984;49.268;12.302;2024-03-07T11:38:07;21.53;;;16.33;;
17727;SDS011;8984;49.268;12.302;2024-03-07T11:40:50;22.23;;;15.63;;
17727;SDS011;8984;49.268;12.302;2024-03-07T11:43:20;20.17;;;15.43;;
17727;SDS011;8984;49.268;12.302;2024-03-07T11:45:50;21.47;;;15.37;;
17727;SDS011;8984;49.268;12.302;2024-03-07T11:48:23;21.70;;;16.17;;
17727;SDS011;8984;49.268;12.302;2024-03-07T11:50:58;23.93;;;15.23;;
17727;SDS011;8984;49.268;12.302;2024-03-07T11:53:52;22.67;;;15.90;;
17727;SDS011;8984;49.268;12.302;2024-03-07T11:56:25;22.23;;;15.30;;
17727;SDS011;8984;49.268;12.302;2024-03-07T11:58:55;26.97;;;16.77;;
17727;SDS011;8984;49.268;12.302;2024-03-07T12:01:32;22.87;;;16.47;;
17727;SDS011;8984;49.268;12.302;2024-03-07T12:04:03;22.40;;;15.70;;
17727;SDS011;8984;49.268;12.302;2024-03-07T12:06:34;20.37;;;15.47;;
17727;SDS011;8984;49.268;12.302;2024-03-07T12:09:07;23.63;;;16.07;;
17727;SDS011;8984;49.268;12.302;2024-03-07T12:11:49;23.30;;;16.50;;
17727;SDS011;8984;49.268;12.302;2024-03-07T12:14:24;20.87;;;14.70;;
17727;SDS011;8984;49.268;12.302;2024-03-07T12:16:54;21.20;;;15.57;;
17727;SDS011;8984;49.268;12.302;2024-03-07T12:19:40;21.70;;;16.03;;
17727;SDS011;8984;49.268;12.302;2024-03-07T12:23:01;20.53;;;15.00;;
17727;SDS011;8984;49.268;12.302;2024-03-07T12:25:58;21.63;;;14.97;;
17727;SDS011;8984;49.268;12.302;2024-03-07T12:28:33;23.77;;;16.20;;
17727;SDS011;8984;49.268;12.302;2024-03-07T12:31:13;20.27;;;14.57;;
17727;SDS011;8984;49.268;12.302;2024-03-07T12:33:42;21.60;;;15.57;;
17727;SDS011;8984;49.268;12.302;2024-03-07T12:36:16;21.70;;;15.03;;
17727;SDS011;8984;49.268;12.302;2024-03-07T12:39:00;18.83;;;13.30;;
17727;SDS011;8984;49.268;12.302;2024-03-07T12:41:52;18.77;;;14.23;;
17727;SDS011;8984;49.268;12.302;2024-03-07T12:44:27;19.20;;;13.90;;
17727;SDS011;8984;49.268;12.302;2024-03-07T12:47:12;19.53;;;14.33;;
17727;SDS011;8984;49.268;12.302;2024-03-07T12:49:42;22.30;;;14.93;;
17727;SDS011;8984;49.268;12.302;2024-03-07T12:52:11;22.90;;;16.17;;
17727;SDS011;8984;49.268;12.302;2024-03-07T12:54:48;21.50;;;15.00;;
17727;SDS011;8984;49.268;12.302;2024-03-07T12:57:20;24.60;;;15.33;;
17727;SDS011;8984;49.268;12.302;2024-03-07T12:59:53;19.57;;;13.73;;
17727;SDS011;8984;49.268;12.302;2024-03-07T13:02:21;21.83;;;14.10;;
17727;SDS011;8984;49.268;12.302;2024-03-07T13:04:52;17.70;;;13.17;;
17727;SDS011;8984;49.268;12.302;2024-03-07T13:07:24;18.40;;;13.23;;
17727;SDS011;8984;49.268;12.302;2024-03-07T13:09:52;19.30;;;14.20;;
17727;SDS011;8984;49.268;12.302;2024-03-07T13:12:22;20.40;;;13.47;;
17727;SDS011;8984;49.268;12.302;2024-03-07T13:14:54;17.37;;;13.47;;
17727;SDS011;8984;49.268;12.302;2024-03-07T13:17:25;23.30;;;14.67;;
17727;SDS011;8984;49.268;12.302;2024-03-07T13:19:52;29.63;;;17.07;;
17727;SDS011;8984;49.268;12.302;2024-03-07T13:22:26;22.90;;;14.50;;
17727;SDS011;8984;49.268;12.302;2024-03-07T13:24:55;25.00;;;15.93;;
17727;SDS011;8984;49.268;12.302;2024-03-07T13:27:30;19.23;;;12.83;;
17727;SDS011;8984;49.268;12.302;2024-03-07T13:30:00;19.17;;;13.10;;
17727;SDS011;8984;49.268;12.302;2024-03-07T13:32:32;22.67;;;13.63;;
17727;SDS011;8984;49.268;12.302;2024-03-07T13:35:00;20.00;;;14.13;;
17727;SDS011;8984;49.268;12.302;2024-03-07T13:37:28;24.67;;;14.87;;
17727;SDS011;8984;49.268;12.302;2024-03-07T13:39:58;20.23;;;13.80;;
17727;SDS011;8984;49.268;12.302;2024-03-07T13:42:50;21.17;;;14.47;;
17727;SDS011;8984;49.268;12.302;2024-03-07T13:45:27;25.73;;;14.17;;
17727;SDS011;8984;49.268;12.302;2024-03-07T13:48:04;18.20;;;13.00;;
17727;SDS011;8984;49.268;12.302;2024-03-07T13:50:42;20.40;;;13.77;;
17727;SDS011;8984;49.268;12.302;2024-03-07T13:53:10;19.27;;;12.47;;
17727;SDS011;8984;49.268;12.302;2024-03-07T13:55:50;23.37;;;14.93;;
17727;SDS011;8984;49.268;12.302;2024-03-07T14:01:22;28.90;;;18.63;;
17727;SDS011;8984;49.268;12.302;2024-03-07T14:04:16;23.50;;;16.07;;
17727;SDS011;8984;49.268;12.302;2024-03-07T14:07:06;35.60;;;21.57;;
17727;SDS011;8984;49.268;12.302;2024-03-07T14:09:45;26.20;;;18.00;;
17727;SDS011;8984;49.268;12.302;2024-03-07T14:12:34;28.00;;;17.70;;
17727;SDS011;8984;49.268;12.302;2024-03-07T14:15:30;27.60;;;18.13;;
17727;SDS011;8984;49.268;12.302;2024-03-07T14:22:00;24.40;;;16.50;;
17727;SDS011;8984;49.268;12.302;2024-03-07T14:27:50;24.13;;;16.73;;
17727;SDS011;8984;49.268;12.302;2024-03-07T14:30:38;25.73;;;19.07;;
17727;SDS011;8984;49.268;12.302;2024-03-07T14:33:18;25.63;;;16.93;;
17727;SDS011;8984;49.268;12.302;2024-03-07T14:36:00;22.43;;;16.43;;
17727;SDS011;8984;49.268;12.302;2024-03-07T14:38:47;27.57;;;18.13;;
17727;SDS011;8984;49.268;12.302;2024-03-07T14:41:19;22.23;;;16.13;;
17727;SDS011;8984;49.268;12.302;2024-03-07T14:44:08;22.27;;;16.73;;
17727;SDS011;8984;49.268;12.302;2024-03-07T14:46:39;24.50;;;16.70;;
17727;SDS011;8984;49.268;12.302;2024-03-07T14:49:06;21.50;;;15.40;;
17727;SDS011;8984;49.268;12.302;2024-03-07T14:51:34;22.40;;;17.17;;
17727;SDS011;8984;49.268;12.302;2024-03-07T14:54:04;28.77;;;18.03;;
17727;SDS011;8984;49.268;12.302;2024-03-07T14:56:33;23.23;;;16.80;;
17727;SDS011;8984;49.268;12.302;2024-03-07T14:59:01;28.23;;;19.10;;
17727;SDS011;8984;49.268;12.302;2024-03-07T15:01:33;25.60;;;17.87;;
17727;SDS011;8984;49.268;12.302;2024-03-07T15:04:03;25.67;;;17.23;;
17727;SDS011;8984;49.268;12.302;2024-03-07T15:06:36;25.07;;;17.23;;
17727;SDS011;8984;49.268;12.302;2024-03-07T15:09:05;26.37;;;17.13;;
17727;SDS011;8984;49.268;12.302;2024-03-07T15:11:36;24.20;;;16.30;;
17727;SDS011;8984;49.268;12.302;2024-03-07T15:14:05;22.53;;;15.67;;
17727;SDS011;8984;49.268;12.302;2024-03-07T15:16:34;24.30;;;17.30;;
17727;SDS011;8984;49.268;12.302;2024-03-07T15:19:10;23.73;;;16.67;;
17727;SDS011;8984;49.268;12.302;2024-03-07T15:21:38;24.07;;;17.00;;
17727;SDS011;8984;49.268;12.302;2024-03-07T15:24:06;24.23;;;16.47;;